Time;durP1;ratioP1;P1;durP2;ratioP2;P2;SDS_P1;SDS_P2;PMS_P1;PMS_P2;Temp;Humidity;BMP_temperature;BMP_pressure;BME280_temperature;BME280_humidity;BME280_pressure;Samples;Min_cycle;Max_cycle;Signal;HPM_P1;HPM_P2
2023/01/09 00:00:43;;;;;;;4.53;2.63;;;;;;;;;;5065574;28;20191;-52
2023/01/09 00:03:28;;;;;;;;;;;;;;;;;;;;;
2023/01/09 00:05:57;;;;;;;4.53;2.30;;;;;;;;;;5085470;28;20198;-52
2023/01/09 00:08:32;;;;;;;2.63;2.40;;;;;;;;;;5093653;28;20315;-52
2023/01/09 00:11:04;;;;;;;3.83;2.60;;;;;;;;;;5094543;28;20202;-52
2023/01/09 00:13:37;;;;;;;2.70;2.50;;;;;;;;;;5093215;28;20203;-51
2023/01/09 00:16:03;;;;;;;2.63;2.30;;;;;;;;;;5094539;28;20194;-52
2023/01/09 00:18:44;;;;;;;3.43;2.50;;;;;;;;;;5094839;28;20202;-52
2023/01/09 00:21:32;;;;;;;2.67;2.47;;;;;;;;;;5074165;28;20203;-51
2023/01/09 00:24:27;;;;;;;3.60;2.67;;;;;;;;;;5085881;28;20226;-52
2023/01/09 00:26:58;;;;;;;2.57;2.37;;;;;;;;;;5035459;28;20195;-50
2023/01/09 00:29:49;;;;;;;2.53;2.33;;;;;;;;;;5090792;28;20222;-50
2023/01/09 00:36:32;;;;;;;2.50;2.30;;;;;;;;;;5083540;28;20824;-52
2023/01/09 00:39:19;;;;;;;2.33;2.13;;;;;;;;;;5083026;28;20620;-52
2023/01/09 00:42:09;;;;;;;2.23;2.03;;;;;;;;;;5091874;28;20190;-51
2023/01/09 00:44:41;;;;;;;2.57;2.37;;;;;;;;;;5044168;28;20267;-53
2023/01/09 00:47:12;;;;;;;3.07;2.67;;;;;;;;;;5094421;28;20245;-51
2023/01/09 00:49:41;;;;;;;3.70;2.60;;;;;;;;;;5094152;28;20295;-51
2023/01/09 00:52:36;;;;;;;3.10;2.63;;;;;;;;;;5094217;28;20191;-51
2023/01/09 00:55:03;;;;;;;2.50;2.20;;;;;;;;;;5009782;28;20205;-51
2023/01/09 00:57:45;;;;;;;3.20;2.63;;;;;;;;;;5011428;28;20202;-53
2023/01/09 01:00:16;;;;;;;2.93;2.50;;;;;;;;;;5069380;28;20256;-52
2023/01/09 01:02:52;;;;;;;2.30;2.10;;;;;;;;;;5092424;28;20249;-52
2023/01/09 01:08:18;;;;;;;3.53;2.30;;;;;;;;;;5094054;28;20209;-53
2023/01/09 01:10:51;;;;;;;3.97;2.23;;;;;;;;;;5093904;28;20303;-52
2023/01/09 01:13:17;;;;;;;4.93;2.57;;;;;;;;;;5093905;28;20198;-52
2023/01/09 01:15:48;;;;;;;2.53;2.33;;;;;;;;;;5093637;28;20199;-51
2023/01/09 01:34:28;;;;;;;2.63;2.43;;;;;;;;;;4904106;29;20296;-52
2023/01/09 01:52:53;;;;;;;2.43;2.20;;;;;;;;;;4746194;30;20672;-52
2023/01/09 01:59:21;;;;;;;2.20;2.00;;;;;;;;;;4782228;29;20285;-52
2023/01/09 02:02:07;;;;;;;2.70;1.83;;;;;;;;;;4892133;29;20228;-52
2023/01/09 02:04:51;;;;;;;2.23;1.87;;;;;;;;;;5002002;28;20204;-59
2023/01/09 02:07:44;;;;;;;3.17;2.10;;;;;;;;;;5067622;28;20639;-53
2023/01/09 02:13:39;;;;;;;5.40;2.20;;;;;;;;;;5061990;28;20278;-52
2023/01/09 02:19:49;;;;;;;2.17;2.07;;;;;;;;;;4894436;29;20213;-54
2023/01/09 02:32:06;;;;;;;2.30;2.10;;;;;;;;;;4903254;29;20217;-52
2023/01/09 02:34:55;;;;;;;2.30;2.10;;;;;;;;;;4912234;29;20292;-52
2023/01/09 02:41:05;;;;;;;3.50;2.50;;;;;;;;;;4902854;29;20293;-51
2023/01/09 02:46:43;;;;;;;4.20;2.80;;;;;;;;;;4912446;29;20677;-52
2023/01/09 02:49:11;;;;;;;4.47;2.73;;;;;;;;;;4912114;29;20231;-52
2023/01/09 02:55:24;;;;;;;2.87;2.57;;;;;;;;;;4969693;28;20209;-52
2023/01/09 03:04:30;;;;;;;3.63;2.03;;;;;;;;;;4954930;28;20206;-52
2023/01/09 03:14:08;;;;;;;2.90;2.40;;;;;;;;;;4893856;29;20197;-52
2023/01/09 03:22:57;;;;;;;3.27;2.50;;;;;;;;;;4902229;28;20860;-51
2023/01/09 03:25:54;;;;;;;1.70;1.60;;;;;;;;;;4949287;29;20222;-51
2023/01/09 03:31:23;;;;;;;1.27;1.17;;;;;;;;;;4893334;29;20217;-51
2023/01/09 03:33:49;;;;;;;1.27;1.20;;;;;;;;;;4983832;28;20318;-50
2023/01/09 03:36:16;;;;;;;1.13;0.97;;;;;;;;;;5039525;28;20249;-50
2023/01/09 03:38:42;;;;;;;1.07;1.07;;;;;;;;;;5070106;28;20195;-51
2023/01/09 03:41:09;;;;;;;1.10;1.10;;;;;;;;;;5069610;28;20205;-50
2023/01/09 03:43:35;;;;;;;1.10;1.10;;;;;;;;;;5070289;28;20540;-50
2023/01/09 03:46:01;;;;;;;1.20;1.10;;;;;;;;;;5070282;28;20204;-50
2023/01/09 03:48:28;;;;;;;1.00;1.00;;;;;;;;;;5070222;28;20258;-50
2023/01/09 03:50:55;;;;;;;1.20;1.10;;;;;;;;;;5070017;28;20227;-50
2023/01/09 03:53:23;;;;;;;1.20;1.10;;;;;;;;;;5070224;28;20669;-51
2023/01/09 03:55:50;;;;;;;1.37;0.90;;;;;;;;;;5069769;28;20702;-50
2023/01/09 03:58:16;;;;;;;1.00;1.00;;;;;;;;;;5070279;28;20195;-50
2023/01/09 04:00:44;;;;;;;1.10;1.10;;;;;;;;;;5070067;28;20192;-50
2023/01/09 04:03:10;;;;;;;0.90;0.90;;;;;;;;;;5070210;28;20257;-51
2023/01/09 04:05:38;;;;;;;3.07;1.10;;;;;;;;;;5070128;28;20610;-51
2023/01/09 04:08:04;;;;;;;0.90;0.90;;;;;;;;;;5070130;28;20261;-50
2023/01/09 04:10:30;;;;;;;1.37;1.00;;;;;;;;;;5069946;28;20223;-51
2023/01/09 04:12:56;;;;;;;0.70;0.70;;;;;;;;;;5070127;28;20269;-51
2023/01/09 04:15:22;;;;;;;1.13;1.03;;;;;;;;;;5069828;28;20270;-51
2023/01/09 04:17:48;;;;;;;0.90;0.90;;;;;;;;;;5069807;28;20199;-50
2023/01/09 04:20:14;;;;;;;1.77;1.10;;;;;;;;;;5070060;28;20290;-51
2023/01/09 04:22:41;;;;;;;0.90;0.90;;;;;;;;;;5069806;28;20617;-51
2023/01/09 04:25:08;;;;;;;1.00;1.00;;;;;;;;;;5070094;28;20298;-51
2023/01/09 04:27:34;;;;;;;0.90;0.90;;;;;;;;;;5069929;28;20199;-51
2023/01/09 04:30:00;;;;;;;0.97;0.97;;;;;;;;;;5069659;28;20593;-51
2023/01/09 04:32:26;;;;;;;1.33;0.90;;;;;;;;;;5070168;28;20211;-51
2023/01/09 04:34:52;;;;;;;0.80;0.80;;;;;;;;;;5072369;28;20603;-51
2023/01/09 04:37:18;;;;;;;1.00;0.90;;;;;;;;;;5090069;28;20256;-51
2023/01/09 04:39:45;;;;;;;1.10;1.00;;;;;;;;;;5089956;28;20195;-51
2023/01/09 04:42:12;;;;;;;0.80;0.80;;;;;;;;;;5089859;28;20565;-52
2023/01/09 04:44:37;;;;;;;1.00;1.00;;;;;;;;;;5089888;28;20442;-52
2023/01/09 04:47:04;;;;;;;0.93;0.93;;;;;;;;;;5089905;28;20199;-52
2023/01/09 04:49:30;;;;;;;0.90;0.90;;;;;;;;;;5089722;28;20428;-52
2023/01/09 04:51:56;;;;;;;1.10;1.10;;;;;;;;;;5092607;28;20540;-52
2023/01/09 04:54:22;;;;;;;1.00;1.00;;;;;;;;;;5093712;28;20194;-52
2023/01/09 04:56:49;;;;;;;1.00;1.00;;;;;;;;;;5093459;28;20194;-52
2023/01/09 04:59:15;;;;;;;1.20;1.20;;;;;;;;;;5093621;28;20202;-52
2023/01/09 05:01:41;;;;;;;1.10;1.10;;;;;;;;;;5093492;28;20187;-52
2023/01/09 05:04:07;;;;;;;2.13;1.40;;;;;;;;;;5092337;28;20199;-53
2023/01/09 05:06:34;;;;;;;1.10;1.00;;;;;;;;;;5092848;28;20205;-52
2023/01/09 05:09:00;;;;;;;1.10;1.10;;;;;;;;;;5093514;28;20226;-52
2023/01/09 05:11:26;;;;;;;2.23;1.27;;;;;;;;;;5093183;28;20195;-52
2023/01/09 05:13:53;;;;;;;1.43;1.33;;;;;;;;;;5093030;28;20220;-52
2023/01/09 05:16:19;;;;;;;1.40;1.30;;;;;;;;;;5092919;28;20198;-52
2023/01/09 05:18:45;;;;;;;1.40;1.30;;;;;;;;;;5093187;28;20715;-52
2023/01/09 05:21:11;;;;;;;1.23;1.13;;;;;;;;;;5093108;28;20766;-51
2023/01/09 05:23:38;;;;;;;1.27;1.20;;;;;;;;;;5092845;28;20203;-52
2023/01/09 05:26:04;;;;;;;1.27;1.17;;;;;;;;;;5093091;28;20191;-52
2023/01/09 05:28:30;;;;;;;1.93;1.70;;;;;;;;;;5093069;28;20307;-53
2023/01/09 05:30:58;;;;;;;1.60;1.50;;;;;;;;;;5092665;28;20234;-52
2023/01/09 05:33:24;;;;;;;1.60;1.50;;;;;;;;;;5092765;28;20232;-53
2023/01/09 05:35:50;;;;;;;1.83;1.40;;;;;;;;;;5092665;28;20700;-52
2023/01/09 05:38:16;;;;;;;1.50;1.40;;;;;;;;;;5092634;28;20228;-53
2023/01/09 05:40:42;;;;;;;2.57;2.37;;;;;;;;;;5092699;28;20737;-53
2023/01/09 05:43:08;;;;;;;1.63;1.53;;;;;;;;;;5092555;28;20203;-52
2023/01/09 05:45:34;;;;;;;1.73;1.63;;;;;;;;;;5092570;28;20199;-52
2023/01/09 05:48:01;;;;;;;2.00;1.80;;;;;;;;;;5092387;28;20689;-53
2023/01/09 05:50:27;;;;;;;1.80;1.70;;;;;;;;;;5092460;28;20225;-52
2023/01/09 05:52:53;;;;;;;2.33;1.80;;;;;;;;;;5092577;28;20193;-53
2023/01/09 05:55:19;;;;;;;1.97;1.77;;;;;;;;;;5092395;28;20199;-53
2023/01/09 05:57:45;;;;;;;2.13;1.93;;;;;;;;;;5092536;28;20195;-52
2023/01/09 06:00:12;;;;;;;1.83;1.70;;;;;;;;;;5092472;28;20664;-51
2023/01/09 06:02:38;;;;;;;4.50;3.00;;;;;;;;;;5091399;28;20199;-53
2023/01/09 06:05:06;;;;;;;3.70;3.30;;;;;;;;;;5092288;28;20700;-50
2023/01/09 06:07:35;;;;;;;3.70;3.33;;;;;;;;;;5092040;28;20211;-51
2023/01/09 06:10:01;;;;;;;4.27;3.27;;;;;;;;;;5091067;28;20309;-51
2023/01/09 06:12:27;;;;;;;2.93;2.73;;;;;;;;;;5091858;28;20322;-52
2023/01/09 06:14:53;;;;;;;2.80;2.60;;;;;;;;;;5091754;28;20206;-52
2023/01/09 06:17:19;;;;;;;2.80;2.50;;;;;;;;;;5091711;28;20657;-51
2023/01/09 06:19:45;;;;;;;3.30;3.00;;;;;;;;;;5091755;28;20199;-52
2023/01/09 06:22:12;;;;;;;2.73;2.50;;;;;;;;;;5091536;28;20641;-52
2023/01/09 06:24:38;;;;;;;4.30;3.07;;;;;;;;;;5091850;28;20238;-52
2023/01/09 06:27:05;;;;;;;2.77;2.57;;;;;;;;;;5091437;28;20206;-52
2023/01/09 06:29:31;;;;;;;3.03;2.83;;;;;;;;;;5091814;28;20231;-52
2023/01/09 06:31:57;;;;;;;4.57;2.80;;;;;;;;;;5089628;28;20187;-52
2023/01/09 06:34:23;;;;;;;3.07;2.80;;;;;;;;;;5068783;28;20551;-51
2023/01/09 06:36:49;;;;;;;4.37;3.43;;;;;;;;;;5087482;28;20270;-52
2023/01/09 06:39:16;;;;;;;5.07;3.90;;;;;;;;;;5091298;28;20233;-52
2023/01/09 06:41:44;;;;;;;3.77;3.47;;;;;;;;;;5090821;28;20203;-51
2023/01/09 06:44:10;;;;;;;6.83;3.93;;;;;;;;;;5090919;28;20548;-51
2023/01/09 06:46:36;;;;;;;3.97;3.63;;;;;;;;;;5090796;28;20214;-51
2023/01/09 06:49:02;;;;;;;4.23;3.57;;;;;;;;;;5090515;28;20256;-51
2023/01/09 06:51:28;;;;;;;6.07;3.73;;;;;;;;;;5090845;28;20231;-51
2023/01/09 06:53:54;;;;;;;3.90;3.40;;;;;;;;;;5090786;28;20190;-51
2023/01/09 06:56:21;;;;;;;5.53;3.97;;;;;;;;;;5090676;28;20664;-51
2023/01/09 06:58:47;;;;;;;5.20;3.83;;;;;;;;;;5090439;28;20217;-51
2023/01/09 07:01:13;;;;;;;5.77;3.43;;;;;;;;;;5090265;28;20191;-51
2023/01/09 07:03:39;;;;;;;4.23;3.73;;;;;;;;;;5090523;28;20533;-51
2023/01/09 07:06:05;;;;;;;5.43;4.27;;;;;;;;;;5090218;28;20199;-51
2023/01/09 07:08:33;;;;;;;5.57;4.70;;;;;;;;;;5088685;28;20198;-51
2023/01/09 07:10:59;;;;;;;5.13;4.57;;;;;;;;;;5090449;28;20231;-51
2023/01/09 07:13:26;;;;;;;7.70;4.90;;;;;;;;;;5090367;28;20225;-51
2023/01/09 07:15:52;;;;;;;6.63;5.07;;;;;;;;;;5090494;28;20198;-50
2023/01/09 07:18:18;;;;;;;6.17;4.43;;;;;;;;;;5090019;28;20195;-51
2023/01/09 07:20:44;;;;;;;8.47;5.80;;;;;;;;;;5090127;28;20244;-50
2023/01/09 07:23:11;;;;;;;7.87;5.50;;;;;;;;;;5090158;28;20188;-51
2023/01/09 07:25:37;;;;;;;7.87;5.90;;;;;;;;;;5090123;28;20226;-51
2023/01/09 07:28:03;;;;;;;7.83;6.37;;;;;;;;;;5090183;28;20191;-51
2023/01/09 07:30:32;;;;;;;10.13;6.70;;;;;;;;;;5090233;28;20226;-51
2023/01/09 07:32:58;;;;;;;6.27;5.67;;;;;;;;;;5090077;28;20218;-52
2023/01/09 07:35:24;;;;;;;6.07;4.93;;;;;;;;;;5090102;28;20886;-52
2023/01/09 07:37:50;;;;;;;5.37;4.87;;;;;;;;;;5089912;28;20198;-51
2023/01/09 07:40:16;;;;;;;8.17;5.20;;;;;;;;;;5090314;28;20198;-52
2023/01/09 07:42:42;;;;;;;7.60;5.63;;;;;;;;;;5090224;28;20281;-51
2023/01/09 07:45:08;;;;;;;7.23;5.50;;;;;;;;;;5089833;28;20891;-51
2023/01/09 07:47:35;;;;;;;7.73;5.60;;;;;;;;;;5090092;28;20293;-52
2023/01/09 07:50:01;;;;;;;6.37;5.43;;;;;;;;;;5089624;28;20833;-52
2023/01/09 07:52:27;;;;;;;8.83;5.00;;;;;;;;;;5089896;28;20970;-51
2023/01/09 07:54:53;;;;;;;9.60;6.43;;;;;;;;;;5089725;28;20207;-51
2023/01/09 07:57:19;;;;;;;6.77;5.70;;;;;;;;;;5089756;28;20237;-51
2023/01/09 07:59:45;;;;;;;8.13;6.13;;;;;;;;;;5089911;28;20205;-51
2023/01/09 08:02:11;;;;;;;6.63;5.73;;;;;;;;;;5089987;28;20806;-51
2023/01/09 08:04:39;;;;;;;10.07;6.63;;;;;;;;;;5089895;28;20244;-50
2023/01/09 08:07:05;;;;;;;8.47;5.80;;;;;;;;;;5089760;28;20213;-51
2023/01/09 08:09:31;;;;;;;6.10;5.50;;;;;;;;;;5089674;28;20877;-52
2023/01/09 08:11:57;;;;;;;6.27;5.67;;;;;;;;;;5089389;28;20432;-51
2023/01/09 08:14:23;;;;;;;11.93;6.73;;;;;;;;;;5089516;28;20316;-51
2023/01/09 08:16:49;;;;;;;8.90;6.10;;;;;;;;;;5089555;28;20665;-52
2023/01/09 08:19:15;;;;;;;9.57;6.83;;;;;;;;;;5089602;28;20198;-51
2023/01/09 08:21:42;;;;;;;9.90;6.17;;;;;;;;;;5089511;28;20226;-51
2023/01/09 08:24:08;;;;;;;10.43;6.57;;;;;;;;;;5089699;28;20260;-50
2023/01/09 08:26:34;;;;;;;7.00;6.13;;;;;;;;;;5091627;28;20199;-51
2023/01/09 08:29:00;;;;;;;6.07;5.30;;;;;;;;;;5093619;28;20211;-51
2023/01/09 08:31:26;;;;;;;6.97;4.90;;;;;;;;;;5093600;28;20249;-51
2023/01/09 08:33:52;;;;;;;7.90;5.03;;;;;;;;;;5093364;28;20552;-51
2023/01/09 08:36:18;;;;;;;6.77;5.13;;;;;;;;;;5093493;28;20235;-51
2023/01/09 08:38:47;;;;;;;7.43;4.67;;;;;;;;;;5093303;28;20195;-52
2023/01/09 08:49:27;;;;;;;10.53;6.57;;;;;;;;;;5093004;28;20341;-52
2023/01/09 08:51:53;;;;;;;8.17;6.00;;;;;;;;;;5092875;28;20273;-51
2023/01/09 08:54:20;;;;;;;11.17;5.93;;;;;;;;;;5093257;28;20349;-52
2023/01/09 08:56:46;;;;;;;9.67;7.40;;;;;;;;;;5092937;28;20206;-50
2023/01/09 08:59:12;;;;;;;10.17;6.27;;;;;;;;;;5093355;28;20511;-51
2023/01/09 09:01:38;;;;;;;10.47;6.73;;;;;;;;;;5093144;28;20252;-51
2023/01/09 09:04:04;;;;;;;7.47;6.33;;;;;;;;;;5092901;28;20207;-50
2023/01/09 09:06:31;;;;;;;9.43;6.53;;;;;;;;;;5092703;28;20278;-50
2023/01/09 09:09:01;;;;;;;10.60;6.47;;;;;;;;;;5092892;28;20221;-50
2023/01/09 09:11:29;;;;;;;8.10;6.50;;;;;;;;;;5092511;28;20680;-50
2023/01/09 09:13:55;;;;;;;10.47;7.27;;;;;;;;;;5092701;28;20198;-50
2023/01/09 09:16:21;;;;;;;10.97;7.13;;;;;;;;;;5092605;28;20479;-50
2023/01/09 09:18:47;;;;;;;7.50;5.07;;;;;;;;;;5092764;28;20274;-51
2023/01/09 09:21:13;;;;;;;8.10;5.20;;;;;;;;;;5092538;28;20203;-50
2023/01/09 09:23:39;;;;;;;8.23;4.70;;;;;;;;;;5092555;28;20222;-50
2023/01/09 09:26:05;;;;;;;6.57;4.13;;;;;;;;;;5092368;28;20221;-51
2023/01/09 09:28:32;;;;;;;4.73;3.90;;;;;;;;;;5092432;28;20199;-51
2023/01/09 09:30:58;;;;;;;6.73;4.40;;;;;;;;;;5092460;28;20233;-51
2023/01/09 09:33:24;;;;;;;7.17;5.43;;;;;;;;;;5092408;28;20195;-51
2023/01/09 09:35:50;;;;;;;7.67;5.20;;;;;;;;;;5092313;28;20615;-52
2023/01/09 09:38:16;;;;;;;6.47;5.30;;;;;;;;;;5090945;28;20286;-53
2023/01/09 09:40:51;;;;;;;8.87;5.80;;;;;;;;;;5092130;28;20197;-53
2023/01/09 09:46:22;;;;;;;7.43;5.53;;;;;;;;;;5092062;28;20708;-54
2023/01/09 09:48:51;;;;;;;7.53;5.80;;;;;;;;;;5092213;28;20209;-54
2023/01/09 09:51:35;;;;;;;9.80;5.10;;;;;;;;;;5091891;28;20226;-55
2023/01/09 09:54:03;;;;;;;6.57;5.00;;;;;;;;;;5087187;28;20223;-54
2023/01/09 09:56:31;;;;;;;6.80;4.57;;;;;;;;;;5104959;28;20206;-54
2023/01/09 09:58:59;;;;;;;6.73;4.03;;;;;;;;;;5112331;28;20229;-54
2023/01/09 10:01:28;;;;;;;8.17;4.40;;;;;;;;;;5112142;28;20633;-53
2023/01/09 10:03:57;;;;;;;6.60;3.97;;;;;;;;;;5112038;28;20675;-53
2023/01/09 10:06:27;;;;;;;7.00;4.23;;;;;;;;;;5112394;28;20190;-54
2023/01/09 10:08:55;;;;;;;6.27;3.70;;;;;;;;;;5109991;28;20191;-54
2023/01/09 10:11:25;;;;;;;4.00;2.50;;;;;;;;;;5110263;28;20623;-53
2023/01/09 10:14:03;;;;;;;5.17;2.80;;;;;;;;;;5111710;28;20194;-55
2023/01/09 10:16:36;;;;;;;5.67;2.60;;;;;;;;;;5111757;28;20665;-53
2023/01/09 10:19:06;;;;;;;4.57;2.20;;;;;;;;;;5111740;28;20204;-53
2023/01/09 10:21:34;;;;;;;3.70;2.23;;;;;;;;;;5111732;28;20221;-56
2023/01/09 10:24:25;;;;;;;2.63;1.70;;;;;;;;;;5111830;28;20300;-53
2023/01/09 10:26:52;;;;;;;4.60;1.90;;;;;;;;;;5110142;28;20285;-53
2023/01/09 10:29:35;;;;;;;3.10;1.90;;;;;;;;;;5111512;28;20182;-52
2023/01/09 10:32:11;;;;;;;3.37;1.93;;;;;;;;;;5108790;28;20206;-53
2023/01/09 10:34:42;;;;;;;4.33;1.70;;;;;;;;;;5111472;28;20209;-53
2023/01/09 10:37:11;;;;;;;4.70;1.97;;;;;;;;;;5111036;28;20198;-53
2023/01/09 10:39:39;;;;;;;4.50;2.03;;;;;;;;;;5111472;28;20197;-54
2023/01/09 10:42:10;;;;;;;5.93;2.20;;;;;;;;;;5111347;28;20201;-54
2023/01/09 10:44:37;;;;;;;5.07;2.17;;;;;;;;;;5111297;28;20642;-52
2023/01/09 10:47:05;;;;;;;3.40;1.73;;;;;;;;;;5111141;28;20210;-54
2023/01/09 10:49:32;;;;;;;4.60;1.90;;;;;;;;;;5110996;28;20216;-54
2023/01/09 10:52:04;;;;;;;4.90;1.97;;;;;;;;;;5111173;28;20202;-54
2023/01/09 10:54:30;;;;;;;4.33;2.17;;;;;;;;;;5111431;28;20222;-54
2023/01/09 10:56:59;;;;;;;3.13;1.93;;;;;;;;;;5110706;28;20194;-53
2023/01/09 10:59:25;;;;;;;2.83;1.70;;;;;;;;;;5109417;28;20214;-55
2023/01/09 11:01:52;;;;;;;7.37;2.27;;;;;;;;;;5110969;28;20190;-53
2023/01/09 11:04:23;;;;;;;4.07;2.00;;;;;;;;;;5111066;28;20190;-54
2023/01/09 11:06:52;;;;;;;4.43;1.97;;;;;;;;;;5110912;28;20205;-54
2023/01/09 11:09:18;;;;;;;5.67;2.00;;;;;;;;;;5110980;28;20202;-53
2023/01/09 11:11:45;;;;;;;3.33;1.80;;;;;;;;;;5110561;28;20256;-53
2023/01/09 11:14:14;;;;;;;6.13;2.47;;;;;;;;;;5110812;28;20194;-53
2023/01/09 11:16:50;;;;;;;4.13;1.50;;;;;;;;;;5110807;28;20209;-53
2023/01/09 11:19:16;;;;;;;2.03;1.60;;;;;;;;;;5111009;28;20236;-53
2023/01/09 11:21:42;;;;;;;4.00;1.60;;;;;;;;;;5110741;28;20190;-53
2023/01/09 11:24:29;;;;;;;4.30;1.70;;;;;;;;;;5108782;28;20251;-53
2023/01/09 11:27:14;;;;;;;3.27;1.40;;;;;;;;;;5086018;28;20244;-52
2023/01/09 11:29:41;;;;;;;2.70;1.40;;;;;;;;;;5069884;28;20595;-53
2023/01/09 11:32:19;;;;;;;2.53;1.37;;;;;;;;;;5070325;28;20200;-53
2023/01/09 11:34:45;;;;;;;4.20;1.40;;;;;;;;;;5073152;28;20240;-53
2023/01/09 11:37:14;;;;;;;4.63;1.70;;;;;;;;;;5089822;28;20435;-53
2023/01/09 11:39:46;;;;;;;3.30;1.60;;;;;;;;;;5089998;28;20195;-54
2023/01/09 11:42:18;;;;;;;4.73;1.50;;;;;;;;;;5089863;28;20225;-54
2023/01/09 11:44:45;;;;;;;3.77;1.50;;;;;;;;;;5089965;28;20187;-54
2023/01/09 11:47:23;;;;;;;2.83;1.53;;;;;;;;;;5089674;28;20256;-55
2023/01/09 11:49:49;;;;;;;2.10;1.30;;;;;;;;;;5089738;28;20240;-54
2023/01/09 11:52:18;;;;;;;4.20;1.90;;;;;;;;;;5089812;28;20207;-53
2023/01/09 11:54:47;;;;;;;6.27;1.87;;;;;;;;;;5089287;28;20656;-54
2023/01/09 11:57:13;;;;;;;5.67;2.10;;;;;;;;;;5089795;28;20195;-52
2023/01/09 11:59:39;;;;;;;3.20;1.43;;;;;;;;;;5089520;28;20191;-53
2023/01/09 12:02:32;;;;;;;2.13;1.43;;;;;;;;;;5089090;28;20187;-54
2023/01/09 12:05:00;;;;;;;4.50;1.70;;;;;;;;;;5030288;28;20210;-54
2023/01/09 12:07:39;;;;;;;4.90;1.80;;;;;;;;;;5089961;28;20214;-53
2023/01/09 12:10:11;;;;;;;2.40;1.60;;;;;;;;;;5089496;28;20210;-54
2023/01/09 12:12:44;;;;;;;3.57;1.80;;;;;;;;;;5089287;28;20197;-54
2023/01/09 12:15:19;;;;;;;2.60;1.70;;;;;;;;;;5089756;28;20575;-54
2023/01/09 12:17:52;;;;;;;4.07;1.60;;;;;;;;;;5089189;28;20190;-54
2023/01/09 12:20:26;;;;;;;3.13;1.50;;;;;;;;;;5089436;28;20191;-53
2023/01/09 12:22:56;;;;;;;4.00;1.60;;;;;;;;;;5089406;28;20262;-54
2023/01/09 12:25:28;;;;;;;2.70;1.77;;;;;;;;;;5089514;28;20199;-54
2023/01/09 12:28:04;;;;;;;2.10;1.63;;;;;;;;;;5089397;28;20195;-56
2023/01/09 12:30:44;;;;;;;2.70;1.77;;;;;;;;;;5089077;28;20230;-53
2023/01/09 12:33:18;;;;;;;5.60;1.70;;;;;;;;;;5085747;28;20197;-53
2023/01/09 12:35:45;;;;;;;3.60;1.90;;;;;;;;;;5089410;28;20314;-54
2023/01/09 12:38:24;;;;;;;2.73;1.70;;;;;;;;;;5089138;28;20609;-53
2023/01/09 12:41:09;;;;;;;2.40;1.67;;;;;;;;;;5089532;28;20268;-54
2023/01/09 12:43:42;;;;;;;1.93;1.57;;;;;;;;;;5089213;28;20214;-54
2023/01/09 12:46:14;;;;;;;2.47;1.50;;;;;;;;;;5089002;28;20282;-54
2023/01/09 12:48:45;;;;;;;3.17;1.80;;;;;;;;;;5089259;28;20191;-54
2023/01/09 12:51:21;;;;;;;3.03;1.70;;;;;;;;;;5089236;28;20287;-55
2023/01/09 12:53:51;;;;;;;2.23;1.77;;;;;;;;;;5089170;28;20613;-55
2023/01/09 12:56:19;;;;;;;2.67;2.17;;;;;;;;;;5089132;28;20284;-54
2023/01/09 12:58:49;;;;;;;2.63;1.60;;;;;;;;;;5089032;28;20649;-55
2023/01/09 13:01:18;;;;;;;4.10;1.90;;;;;;;;;;5089338;28;20264;-56
2023/01/09 13:03:48;;;;;;;2.20;1.77;;;;;;;;;;5089343;28;20202;-55
2023/01/09 13:06:15;;;;;;;2.47;1.70;;;;;;;;;;5088712;28;20205;-55
2023/01/09 13:08:45;;;;;;;3.60;1.70;;;;;;;;;;5089360;28;20203;-53
2023/01/09 13:11:14;;;;;;;3.90;2.00;;;;;;;;;;5089010;28;20283;-54
2023/01/09 13:13:44;;;;;;;2.30;1.60;;;;;;;;;;5092750;28;20210;-55
2023/01/09 13:16:12;;;;;;;2.30;2.10;;;;;;;;;;5092672;28;20198;-54
2023/01/09 13:18:42;;;;;;;3.20;1.80;;;;;;;;;;5092075;28;20229;-55
2023/01/09 13:21:08;;;;;;;4.70;2.40;;;;;;;;;;5092451;28;20206;-54
2023/01/09 13:23:41;;;;;;;2.80;1.83;;;;;;;;;;5092695;28;20187;-55
2023/01/09 13:26:08;;;;;;;1.77;1.67;;;;;;;;;;5092527;28;20199;-54
2023/01/09 13:28:39;;;;;;;3.27;1.90;;;;;;;;;;5092393;28;20290;-54
2023/01/09 13:31:17;;;;;;;3.70;2.00;;;;;;;;;;5091973;28;20261;-55
2023/01/09 13:33:44;;;;;;;2.10;1.63;;;;;;;;;;5092265;28;20325;-54
2023/01/09 13:36:20;;;;;;;2.70;1.70;;;;;;;;;;5091880;28;20261;-54
2023/01/09 13:38:48;;;;;;;3.23;2.00;;;;;;;;;;5073487;28;20212;-54
2023/01/09 13:44:01;;;;;;;3.83;2.30;;;;;;;;;;5091970;28;20189;-52
2023/01/09 13:46:35;;;;;;;4.23;2.30;;;;;;;;;;5092385;28;20214;-53
2023/01/09 13:49:02;;;;;;;3.83;2.30;;;;;;;;;;5092225;28;20210;-54
2023/01/09 13:51:55;;;;;;;3.97;2.40;;;;;;;;;;5092049;28;20599;-54
2023/01/09 13:54:40;;;;;;;3.10;2.20;;;;;;;;;;5092249;28;20218;-51
2023/01/09 13:57:27;;;;;;;3.73;2.40;;;;;;;;;;5091760;28;20191;-52
2023/01/09 13:59:56;;;;;;;2.87;2.20;;;;;;;;;;5091743;28;20199;-50
2023/01/09 14:02:43;;;;;;;2.47;2.27;;;;;;;;;;5092122;28;20203;-52
2023/01/09 14:05:11;;;;;;;2.93;2.30;;;;;;;;;;5091548;28;20252;-52
2023/01/09 14:07:37;;;;;;;5.40;2.60;;;;;;;;;;5091416;28;20241;-53
2023/01/09 14:10:05;;;;;;;3.00;2.70;;;;;;;;;;5091136;28;20274;-54
2023/01/09 14:12:33;;;;;;;4.23;2.60;;;;;;;;;;5091767;28;20292;-54
2023/01/09 14:15:01;;;;;;;5.37;2.70;;;;;;;;;;5091541;28;20245;-54
2023/01/09 14:17:30;;;;;;;3.17;2.63;;;;;;;;;;5091876;28;20279;-55
2023/01/09 14:19:57;;;;;;;3.97;2.60;;;;;;;;;;5091394;28;20203;-54
2023/01/09 14:22:26;;;;;;;4.17;2.80;;;;;;;;;;5091534;28;20194;-54
2023/01/09 14:24:55;;;;;;;5.07;2.50;;;;;;;;;;5090695;28;20211;-52
2023/01/09 14:27:39;;;;;;;3.80;2.97;;;;;;;;;;5091494;28;20282;-54
2023/01/09 14:30:16;;;;;;;4.20;2.87;;;;;;;;;;5091351;28;20187;-54
2023/01/09 14:32:43;;;;;;;3.63;2.80;;;;;;;;;;5091044;28;20289;-55
2023/01/09 14:35:12;;;;;;;3.83;2.90;;;;;;;;;;5091081;28;20239;-55
2023/01/09 14:37:40;;;;;;;6.03;3.40;;;;;;;;;;5091072;28;20199;-54
2023/01/09 14:40:06;;;;;;;4.73;3.10;;;;;;;;;;5091195;28;20218;-55
2023/01/09 14:42:33;;;;;;;6.23;3.43;;;;;;;;;;5091162;28;20195;-55
2023/01/09 14:45:02;;;;;;;3.30;3.00;;;;;;;;;;5090710;28;20195;-56
2023/01/09 14:47:32;;;;;;;7.43;3.30;;;;;;;;;;5091030;28;20561;-54
2023/01/09 14:50:03;;;;;;;3.53;3.17;;;;;;;;;;5089275;28;20195;-55
2023/01/09 14:52:31;;;;;;;5.20;2.93;;;;;;;;;;5090835;28;20203;-55
2023/01/09 14:54:59;;;;;;;2.77;2.20;;;;;;;;;;5090767;28;20207;-54
2023/01/09 14:57:32;;;;;;;2.77;2.50;;;;;;;;;;5091118;28;20256;-54
2023/01/09 14:59:59;;;;;;;3.90;2.20;;;;;;;;;;5090787;28;20272;-53
2023/01/09 15:02:26;;;;;;;2.10;1.90;;;;;;;;;;5090921;28;20198;-55
2023/01/09 15:04:55;;;;;;;3.03;1.80;;;;;;;;;;5090462;28;20245;-54
2023/01/09 15:07:24;;;;;;;3.70;1.80;;;;;;;;;;5090383;28;20202;-54
2023/01/09 15:09:52;;;;;;;2.83;1.80;;;;;;;;;;5064116;28;20204;-55
2023/01/09 15:12:22;;;;;;;2.07;1.70;;;;;;;;;;5068235;28;20535;-54
2023/01/09 15:14:50;;;;;;;2.90;1.80;;;;;;;;;;5070044;28;20207;-55
2023/01/09 15:17:19;;;;;;;1.50;1.40;;;;;;;;;;5069918;28;20257;-54
2023/01/09 15:19:45;;;;;;;1.50;1.33;;;;;;;;;;5070339;28;20199;-54
2023/01/09 15:22:21;;;;;;;1.50;1.40;;;;;;;;;;5069762;28;20203;-53
2023/01/09 15:24:47;;;;;;;4.33;1.67;;;;;;;;;;5068114;28;20195;-53
2023/01/09 15:27:20;;;;;;;2.20;1.30;;;;;;;;;;5069975;28;20728;-53
2023/01/09 15:29:48;;;;;;;2.57;1.50;;;;;;;;;;5067806;28;20219;-53
2023/01/09 15:32:16;;;;;;;4.10;1.70;;;;;;;;;;5069651;28;20315;-53
2023/01/09 15:34:43;;;;;;;1.50;1.40;;;;;;;;;;5070800;28;20203;-53
2023/01/09 15:37:18;;;;;;;1.50;1.40;;;;;;;;;;5089849;28;20195;-54
2023/01/09 15:39:44;;;;;;;1.47;1.37;;;;;;;;;;5089652;28;20281;-53
2023/01/09 15:45:05;;;;;;;3.00;1.90;;;;;;;;;;5089804;28;20194;-53
2023/01/09 15:47:32;;;;;;;2.23;1.50;;;;;;;;;;5090201;28;20198;-54
2023/01/09 15:50:05;;;;;;;2.43;1.50;;;;;;;;;;5089705;28;20195;-54
2023/01/09 15:52:31;;;;;;;1.70;1.60;;;;;;;;;;5089737;28;20792;-52
2023/01/09 15:54:57;;;;;;;2.00;1.63;;;;;;;;;;5089800;28;20202;-53
2023/01/09 15:57:34;;;;;;;2.30;1.60;;;;;;;;;;5089628;28;20203;-54
2023/01/09 16:00:18;;;;;;;2.97;1.70;;;;;;;;;;5089753;28;20754;-53
2023/01/09 16:05:32;;;;;;;3.43;1.90;;;;;;;;;;5089606;28;20684;-55
2023/01/09 16:07:58;;;;;;;2.40;2.20;;;;;;;;;;5089618;28;20792;-53
2023/01/09 16:10:26;;;;;;;1.70;1.60;;;;;;;;;;5089409;28;20305;-53
2023/01/09 16:12:53;;;;;;;3.57;1.77;;;;;;;;;;5089534;28;20199;-53
2023/01/09 16:15:19;;;;;;;3.97;2.10;;;;;;;;;;5089521;28;20249;-53
2023/01/09 16:18:00;;;;;;;2.37;1.90;;;;;;;;;;5089480;28;20191;-55
2023/01/09 16:20:28;;;;;;;2.10;1.90;;;;;;;;;;5089052;28;20284;-53
2023/01/09 16:22:54;;;;;;;2.37;2.00;;;;;;;;;;5089626;28;20191;-53
2023/01/09 16:25:24;;;;;;;1.73;1.60;;;;;;;;;;5089501;28;20199;-55
2023/01/09 16:28:05;;;;;;;2.80;2.10;;;;;;;;;;5089576;28;20205;-53
2023/01/09 16:30:31;;;;;;;4.07;1.80;;;;;;;;;;5089239;28;20272;-53
2023/01/09 16:32:57;;;;;;;3.83;2.27;;;;;;;;;;5089234;28;20199;-55
2023/01/09 16:35:24;;;;;;;4.23;2.30;;;;;;;;;;5089305;28;20238;-54
2023/01/09 16:37:52;;;;;;;3.70;2.30;;;;;;;;;;5089391;28;20206;-55
2023/01/09 16:40:28;;;;;;;3.70;2.27;;;;;;;;;;5089232;28;20545;-53
2023/01/09 16:43:02;;;;;;;4.03;2.60;;;;;;;;;;5089356;28;20206;-53
2023/01/09 16:45:29;;;;;;;3.57;2.47;;;;;;;;;;5089132;28;20665;-53
2023/01/09 16:47:56;;;;;;;2.80;2.50;;;;;;;;;;5092108;28;20248;-54
2023/01/09 16:50:23;;;;;;;3.87;3.47;;;;;;;;;;5092845;28;20199;-54